createdAt,value
2022-12-12T00:00:25.912Z,29.47
2022-12-12T00:01:24.149Z,28.90
2022-12-12T00:02:05.765Z,30.43
2022-12-12T00:02:47.589Z,29.08
2022-12-12T00:03:29.392Z,31.00
2022-12-12T00:04:11.463Z,31.23
2022-12-12T00:04:57.343Z,31.63
2022-12-12T00:05:39.068Z,29.83
2022-12-12T00:06:22.201Z,30.40
2022-12-12T00:07:03.866Z,32.13
2022-12-12T00:07:45.742Z,31.27
2022-12-12T00:08:27.377Z,30.97
2022-12-12T00:09:09.519Z,29.13
2022-12-12T00:09:51.161Z,32.13
2022-12-12T00:10:33.951Z,29.27
2022-12-12T00:11:15.826Z,29.43
2022-12-12T00:11:57.397Z,30.13
2022-12-12T00:12:38.996Z,30.63
2022-12-12T00:13:20.576Z,28.43
2022-12-12T00:14:02.242Z,31.43
2022-12-12T00:14:43.864Z,31.17
2022-12-12T00:15:25.629Z,31.17
2022-12-12T00:16:09.003Z,28.90
2022-12-12T00:16:50.711Z,31.13
2022-12-12T00:17:32.341Z,31.40
2022-12-12T00:18:15.461Z,30.42
2022-12-12T00:18:57.359Z,29.87
2022-12-12T00:19:38.995Z,30.87
2022-12-12T00:20:20.745Z,32.43
2022-12-12T00:21:04.270Z,30.47
2022-12-12T00:21:45.951Z,31.47
2022-12-12T00:22:27.581Z,35.20
2022-12-12T00:23:09.210Z,34.53
2022-12-12T00:23:51.632Z,34.07
2022-12-12T00:24:33.348Z,32.90
2022-12-12T00:25:15.265Z,34.73
2022-12-12T00:26:00.566Z,32.90
2022-12-12T00:26:42.260Z,32.40
2022-12-12T00:27:23.974Z,32.95
2022-12-12T00:28:07.014Z,32.23
2022-12-12T00:28:49.050Z,31.93
2022-12-12T00:29:30.663Z,30.48
2022-12-12T00:30:12.750Z,32.47
2022-12-12T00:30:55.049Z,31.33
2022-12-12T00:31:36.998Z,27.67
2022-12-12T00:32:18.802Z,30.90
2022-12-12T00:33:00.411Z,28.40
2022-12-12T00:33:44.737Z,26.90
2022-12-12T00:34:26.374Z,31.40
2022-12-12T00:35:08.558Z,29.77
2022-12-12T00:35:54.705Z,29.53
2022-12-12T00:36:36.370Z,27.93
2022-12-12T00:37:18.018Z,30.30
2022-12-12T00:37:59.637Z,27.77
2022-12-12T00:38:41.235Z,29.80
2022-12-12T00:39:23.740Z,30.15
2022-12-12T00:40:06.376Z,26.60
2022-12-12T00:40:48.646Z,28.43
2022-12-12T00:41:30.342Z,28.10
2022-12-12T00:42:11.998Z,28.27
2022-12-12T00:42:53.673Z,27.17
2022-12-12T00:43:35.307Z,27.52
2022-12-12T00:44:17.265Z,25.92
2022-12-12T00:44:58.965Z,27.27
2022-12-12T00:45:40.896Z,27.83
2022-12-12T00:46:24.155Z,27.30
2022-12-12T00:47:05.897Z,26.73
2022-12-12T00:47:47.714Z,27.13
2022-12-12T00:48:29.503Z,28.07
2022-12-12T00:49:13.052Z,27.70
2022-12-12T00:49:54.659Z,28.07
2022-12-12T00:50:36.380Z,26.13
2022-12-12T00:51:20.725Z,28.27
2022-12-12T00:52:02.408Z,26.83
2022-12-12T00:52:44.071Z,27.53
2022-12-12T00:53:26.095Z,27.77
2022-12-12T00:54:07.736Z,28.93
2022-12-12T00:54:49.416Z,28.30
2022-12-12T00:55:31.105Z,26.37
2022-12-12T00:56:15.528Z,30.17
2022-12-12T00:56:57.116Z,27.93
2022-12-12T00:57:38.814Z,28.30
2022-12-12T00:58:20.542Z,28.80
2022-12-12T00:59:03.822Z,30.17
2022-12-12T00:59:45.494Z,28.42
2022-12-12T01:00:27.633Z,31.07
2022-12-12T01:01:15.547Z,30.57
2022-12-12T01:01:57.165Z,29.93
2022-12-12T01:02:38.824Z,28.52
2022-12-12T01:03:21.693Z,30.67
2022-12-12T01:04:04.819Z,28.23
2022-12-12T01:04:46.468Z,31.53
2022-12-12T01:05:28.538Z,27.70
2022-12-12T01:06:10.957Z,28.95
2022-12-12T01:06:52.579Z,31.43
2022-12-12T01:07:34.143Z,32.03
2022-12-12T01:08:15.789Z,30.38
2022-12-12T01:08:57.744Z,31.47
2022-12-12T01:09:39.505Z,28.73
2022-12-12T01:10:21.106Z,29.58
2022-12-12T01:11:02.810Z,29.15
2022-12-12T01:11:44.611Z,28.33
2022-12-12T01:12:26.232Z,31.30
2022-12-12T01:13:07.992Z,32.10
2022-12-12T01:13:51.696Z,32.55
2022-12-12T01:14:33.354Z,30.75
2022-12-12T01:15:15.189Z,32.00
2022-12-12T01:15:57.440Z,32.63
2022-12-12T01:16:39.243Z,32.10
2022-12-12T01:17:21.072Z,32.33
2022-12-12T01:18:02.658Z,30.52
2022-12-12T01:18:44.221Z,30.92
2022-12-12T01:19:25.772Z,31.47
2022-12-12T01:20:14.860Z,29.80
2022-12-12T01:20:56.602Z,29.20
2022-12-12T01:21:38.227Z,31.37
2022-12-12T01:22:20.065Z,34.50
2022-12-12T01:23:01.676Z,33.50
2022-12-12T01:23:43.790Z,30.77
2022-12-12T01:24:25.437Z,32.17
2022-12-12T01:25:07.573Z,30.63
2022-12-12T01:25:49.175Z,32.50
2022-12-12T01:26:30.780Z,29.47
2022-12-12T01:27:12.330Z,29.65
2022-12-12T01:27:53.904Z,31.15
2022-12-12T01:28:36.163Z,32.70
2022-12-12T01:29:17.845Z,29.57
2022-12-12T01:30:01.989Z,30.10
2022-12-12T01:30:43.668Z,31.13
2022-12-12T01:31:25.354Z,33.22
2022-12-12T01:32:06.970Z,33.13
2022-12-12T01:32:49.038Z,32.73
2022-12-12T01:33:30.610Z,33.53
2022-12-12T01:34:12.190Z,31.83
2022-12-12T01:34:53.859Z,34.37
2022-12-12T01:35:35.522Z,34.45
2022-12-12T01:36:20.186Z,32.77
2022-12-12T01:37:01.817Z,34.00
2022-12-12T01:37:43.818Z,34.53
2022-12-12T01:38:25.777Z,33.45
2022-12-12T01:39:07.449Z,32.20
2022-12-12T01:39:49.103Z,33.50
2022-12-12T01:40:31.546Z,35.30
2022-12-12T01:41:13.911Z,35.83
2022-12-12T01:41:55.505Z,32.75
2022-12-12T01:42:37.103Z,33.07
2022-12-12T01:43:21.459Z,34.33
2022-12-12T01:44:24.859Z,31.30
2022-12-12T01:45:07.176Z,31.47
2022-12-12T01:45:57.935Z,33.50
2022-12-12T01:46:41.505Z,32.90
2022-12-12T01:47:24.724Z,34.60
2022-12-12T01:48:06.340Z,31.83
2022-12-12T01:49:02.373Z,33.70
2022-12-12T01:50:08.120Z,33.40
2022-12-12T01:50:50.801Z,31.10
2022-12-12T01:51:33.394Z,32.07
2022-12-12T01:52:19.895Z,32.33
2022-12-12T01:53:01.628Z,32.10
2022-12-12T01:53:45.427Z,30.53
2022-12-12T01:54:31.186Z,30.00
2022-12-12T01:55:17.254Z,31.43
2022-12-12T01:56:02.334Z,30.27
2022-12-12T01:56:45.966Z,28.93
2022-12-12T01:57:33.020Z,27.93
2022-12-12T01:58:15.465Z,31.37
2022-12-12T01:59:00.560Z,28.53
2022-12-12T01:59:44.059Z,27.47
2022-12-12T02:00:25.854Z,31.00
2022-12-12T02:01:09.510Z,29.60
2022-12-12T02:01:52.655Z,30.93
2022-12-12T02:02:35.161Z,28.37
2022-12-12T02:03:16.966Z,27.67
2022-12-12T02:04:01.869Z,28.80
2022-12-12T02:04:43.637Z,27.97
2022-12-12T02:05:31.145Z,28.03
2022-12-12T02:06:19.006Z,29.37
2022-12-12T02:07:01.162Z,30.20
2022-12-12T02:07:42.944Z,29.93
2022-12-12T02:08:25.600Z,27.73
2022-12-12T02:09:11.191Z,29.60
2022-12-12T02:09:52.966Z,27.30
2022-12-12T02:10:35.133Z,26.83
2022-12-12T02:11:17.132Z,29.10
2022-12-12T02:11:59.195Z,27.67
2022-12-12T02:12:41.195Z,31.13
2022-12-12T02:13:26.618Z,31.67
2022-12-12T02:14:08.520Z,31.53
2022-12-12T02:14:52.655Z,32.80
2022-12-12T02:16:03.866Z,29.53
2022-12-12T02:16:54.213Z,29.97
2022-12-12T02:18:00.940Z,30.13
2022-12-12T02:19:17.154Z,33.50
2022-12-12T02:20:07.928Z,30.20
2022-12-12T02:21:03.762Z,32.43
2022-12-12T02:21:59.323Z,30.10
2022-12-12T02:22:57.301Z,29.57
2022-12-12T02:24:13.293Z,33.30
2022-12-12T02:25:42.162Z,30.93
2022-12-12T02:26:42.360Z,32.67
2022-12-12T02:27:36.177Z,30.33
2022-12-12T02:28:36.458Z,30.80
2022-12-12T02:29:52.094Z,30.00
2022-12-12T02:31:08.961Z,30.90
2022-12-12T02:32:19.303Z,29.33
2022-12-12T02:33:18.604Z,30.63
2022-12-12T02:34:13.606Z,31.63
2022-12-12T02:35:19.230Z,27.57
2022-12-12T02:36:09.897Z,28.80
2022-12-12T02:36:54.461Z,28.03
2022-12-12T02:37:45.970Z,26.73
2022-12-12T02:38:58.665Z,29.63
2022-12-12T02:39:50.173Z,27.63
2022-12-12T02:40:40.306Z,29.50
2022-12-12T02:41:40.339Z,25.73
2022-12-12T02:42:37.727Z,27.20
2022-12-12T02:43:27.011Z,28.83
2022-12-12T02:44:20.169Z,26.30
2022-12-12T02:45:25.614Z,30.23
2022-12-12T02:46:10.363Z,26.73
2022-12-12T02:47:15.082Z,28.20
2022-12-12T02:48:21.751Z,29.17
2022-12-12T02:49:09.747Z,30.13
2022-12-12T02:50:03.784Z,28.00
2022-12-12T02:50:48.867Z,27.00
2022-12-12T02:51:33.271Z,29.50
2022-12-12T02:52:16.745Z,28.70
2022-12-12T02:52:59.993Z,28.67
2022-12-12T02:53:41.672Z,28.67
2022-12-12T02:54:23.623Z,28.80
2022-12-12T02:55:06.063Z,29.47
2022-12-12T02:55:49.373Z,28.47
2022-12-12T02:56:52.955Z,29.57
2022-12-12T02:57:34.538Z,30.00
2022-12-12T02:58:19.205Z,31.10
2022-12-12T02:59:00.892Z,33.60
2022-12-12T02:59:47.400Z,29.70
2022-12-12T03:00:40.576Z,28.70
2022-12-12T03:01:43.619Z,31.37
2022-12-12T03:02:31.158Z,27.90
2022-12-12T03:03:53.266Z,27.03
2022-12-12T03:05:27.430Z,28.50
2022-12-12T03:06:54.638Z,31.93
2022-12-12T03:08:21.374Z,29.40
2022-12-12T03:09:24.779Z,30.50
2022-12-12T03:10:06.555Z,30.53
2022-12-12T03:10:56.441Z,28.97
2022-12-12T03:11:59.823Z,29.83
2022-12-12T03:13:11.638Z,27.47
2022-12-12T03:14:05.336Z,29.17
2022-12-12T03:15:12.368Z,27.70
2022-12-12T03:16:09.818Z,27.17
2022-12-12T03:17:10.989Z,27.70
2022-12-12T03:18:18.864Z,29.53
2022-12-12T03:19:19.528Z,28.50
2022-12-12T03:20:06.395Z,28.97
2022-12-12T03:20:55.006Z,26.67
2022-12-12T03:21:48.932Z,26.27
2022-12-12T03:22:47.101Z,26.93
2022-12-12T03:23:37.034Z,28.03
2022-12-12T03:24:24.965Z,30.03
2022-12-12T03:25:26.727Z,28.53
2022-12-12T03:26:13.902Z,27.27
2022-12-12T03:27:04.551Z,29.10
2022-12-12T03:28:17.528Z,28.37
2022-12-12T03:29:03.869Z,31.73
2022-12-12T03:29:59.725Z,31.97
2022-12-12T03:30:46.605Z,30.20
2022-12-12T03:31:31.498Z,28.07
2022-12-12T03:32:19.062Z,30.20
2022-12-12T03:33:11.378Z,31.40
2022-12-12T03:33:58.218Z,30.23
2022-12-12T03:34:44.645Z,30.87
2022-12-12T03:35:35.780Z,29.83
2022-12-12T03:36:21.780Z,27.57
2022-12-12T03:37:11.865Z,27.03
2022-12-12T03:38:00.741Z,28.87
2022-12-12T03:38:56.705Z,28.87
2022-12-12T03:39:50.217Z,28.30
2022-12-12T03:40:41.041Z,27.83
2022-12-12T03:41:34.509Z,29.40
2022-12-12T03:42:33.093Z,29.73
2022-12-12T03:43:50.267Z,26.67
2022-12-12T03:44:41.608Z,28.30
2022-12-12T03:45:38.304Z,29.27
2022-12-12T03:46:33.186Z,28.23
2022-12-12T03:47:27.309Z,27.83
2022-12-12T03:48:15.365Z,28.20
2022-12-12T03:49:20.214Z,26.50
2022-12-12T03:50:05.982Z,28.37
2022-12-12T03:50:55.158Z,26.00
2022-12-12T03:51:52.563Z,30.60
2022-12-12T03:52:41.734Z,30.67
2022-12-12T03:53:48.301Z,28.63
2022-12-12T03:54:38.010Z,30.57
2022-12-12T03:55:44.332Z,28.00
2022-12-12T03:56:34.427Z,27.77
2022-12-12T03:57:22.368Z,28.00
2022-12-12T03:58:16.416Z,26.90
2022-12-12T03:59:09.283Z,29.70
2022-12-12T04:00:01.706Z,31.33
2022-12-12T04:00:48.314Z,28.17
2022-12-12T04:01:51.168Z,28.33
2022-12-12T04:02:37.045Z,28.27
2022-12-12T04:03:31.651Z,29.60
2022-12-12T04:04:28.342Z,29.80
2022-12-12T04:06:06.497Z,30.30
2022-12-12T04:06:59.453Z,27.80
2022-12-12T04:07:46.191Z,27.83
2022-12-12T04:08:28.604Z,30.40
2022-12-12T04:09:34.340Z,30.57
2022-12-12T04:10:34.864Z,31.20
2022-12-12T04:11:39.903Z,28.33
2022-12-12T04:12:58.558Z,30.67
2022-12-12T04:13:58.690Z,29.47
2022-12-12T04:14:53.502Z,29.43
2022-12-12T04:15:46.822Z,28.83
2022-12-12T04:16:35.894Z,29.73
2022-12-12T04:17:25.139Z,28.23
2022-12-12T04:18:37.525Z,29.53
2022-12-12T04:19:56.435Z,31.63
2022-12-12T04:21:21.069Z,32.17
2022-12-12T04:22:27.133Z,30.03
2022-12-12T04:23:36.340Z,28.50
2022-12-12T04:24:23.023Z,28.97
2022-12-12T04:25:15.456Z,30.70
2022-12-12T04:26:36.393Z,30.13
2022-12-12T04:27:27.451Z,30.00
2022-12-12T04:28:09.500Z,29.77
2022-12-12T04:29:06.232Z,28.03
2022-12-12T04:29:56.730Z,29.10
2022-12-12T04:30:38.343Z,30.03
2022-12-12T04:31:25.186Z,27.27
2022-12-12T04:32:15.799Z,26.47
2022-12-12T04:33:05.796Z,28.97
2022-12-12T04:33:51.004Z,26.97
2022-12-12T04:34:43.916Z,28.93
2022-12-12T04:35:43.293Z,32.27
2022-12-12T04:36:26.427Z,30.47
2022-12-12T04:37:11.502Z,32.57
2022-12-12T04:37:58.328Z,32.77
2022-12-12T04:38:42.726Z,33.10
2022-12-12T04:39:26.004Z,33.67
2022-12-12T04:40:14.500Z,31.97
2022-12-12T04:41:00.182Z,32.33
2022-12-12T04:41:45.694Z,33.03
2022-12-12T04:42:32.454Z,31.17
2022-12-12T04:43:31.502Z,27.10
2022-12-12T04:44:15.273Z,30.17
2022-12-12T04:45:08.553Z,28.13
2022-12-12T04:45:57.491Z,27.27
2022-12-12T04:46:41.820Z,31.30
2022-12-12T04:47:25.724Z,29.13
2022-12-12T04:48:11.584Z,29.30
2022-12-12T04:48:58.783Z,29.43
2022-12-12T04:49:43.606Z,27.57
2022-12-12T04:50:28.798Z,28.77
2022-12-12T04:51:16.529Z,28.80
2022-12-12T04:52:09.004Z,28.87
2022-12-12T04:52:53.347Z,31.00
2022-12-12T04:53:40.310Z,27.73
2022-12-12T04:54:53.149Z,31.83
2022-12-12T04:55:39.850Z,28.77
2022-12-12T04:56:26.431Z,32.10
2022-12-12T04:57:11.970Z,30.53
2022-12-12T04:57:55.652Z,28.87
2022-12-12T04:58:39.253Z,31.17
2022-12-12T04:59:21.153Z,27.77
2022-12-12T05:00:03.748Z,27.07
2022-12-12T05:00:53.331Z,28.00
2022-12-12T05:02:08.905Z,28.10
2022-12-12T05:03:02.219Z,29.20
2022-12-12T05:03:51.556Z,30.97
2022-12-12T05:04:54.814Z,32.50
2022-12-12T05:05:42.174Z,30.40
2022-12-12T05:06:49.875Z,29.77
2022-12-12T05:07:39.745Z,28.67
2022-12-12T05:08:35.426Z,27.17
2022-12-12T05:09:18.630Z,30.07
2022-12-12T05:10:00.619Z,31.37
2022-12-12T05:10:47.024Z,29.33
2022-12-12T05:11:29.358Z,30.03
2022-12-12T05:12:11.112Z,32.53
2022-12-12T05:12:58.278Z,31.80
2022-12-12T05:13:43.177Z,32.00
2022-12-12T05:14:24.810Z,32.30
2022-12-12T05:15:07.264Z,32.67
2022-12-12T05:15:51.410Z,30.77
2022-12-12T05:16:38.533Z,33.43
2022-12-12T05:17:27.599Z,35.03
2022-12-12T05:18:11.382Z,33.63
2022-12-12T05:18:53.469Z,33.30
2022-12-12T05:19:35.093Z,34.70
2022-12-12T05:20:16.689Z,37.33
2022-12-12T05:20:58.301Z,35.43
2022-12-12T05:21:39.925Z,34.20
2022-12-12T05:22:21.511Z,35.90
2022-12-12T05:23:04.082Z,32.90
2022-12-12T05:23:45.638Z,35.20
2022-12-12T05:24:31.101Z,34.03
2022-12-12T05:25:13.319Z,34.40
2022-12-12T05:25:55.396Z,34.23
2022-12-12T05:26:37.276Z,32.07
2022-12-12T05:27:18.958Z,32.40
2022-12-12T05:28:00.550Z,32.13
2022-12-12T05:28:42.137Z,31.73
2022-12-12T05:29:23.858Z,30.43
2022-12-12T05:30:06.403Z,30.67
2022-12-12T05:30:48.519Z,29.40
2022-12-12T05:31:30.286Z,28.10
2022-12-12T05:32:11.923Z,29.97
2022-12-12T05:32:53.735Z,30.13
2022-12-12T05:33:35.397Z,30.50
2022-12-12T05:34:17.043Z,32.47
2022-12-12T05:34:58.647Z,27.97
2022-12-12T05:35:40.309Z,29.93
2022-12-12T05:36:21.940Z,28.80
2022-12-12T05:37:03.669Z,29.40
2022-12-12T05:37:49.941Z,30.90
2022-12-12T05:38:34.100Z,28.77
2022-12-12T05:39:15.895Z,31.80
2022-12-12T05:39:57.511Z,32.63
2022-12-12T05:40:39.126Z,39.07
2022-12-12T05:41:20.692Z,33.63
2022-12-12T05:42:02.337Z,32.40
2022-12-12T05:42:43.987Z,34.90
2022-12-12T05:43:25.843Z,35.40
2022-12-12T05:44:07.404Z,33.40
2022-12-12T05:44:48.996Z,34.50
2022-12-12T05:45:30.623Z,34.40
2022-12-12T05:46:12.412Z,30.17
2022-12-12T05:46:54.119Z,31.27
2022-12-12T05:47:35.742Z,32.87
2022-12-12T05:48:22.584Z,33.67
2022-12-12T05:49:05.859Z,34.30
2022-12-12T05:49:47.573Z,32.37
2022-12-12T05:50:29.175Z,33.30
2022-12-12T05:51:10.778Z,33.27
2022-12-12T05:51:52.322Z,34.00
2022-12-12T05:52:34.246Z,34.50
2022-12-12T05:53:15.980Z,32.23
2022-12-12T05:53:57.575Z,31.43
2022-12-12T05:54:40.398Z,31.20
2022-12-12T05:55:21.953Z,30.57
2022-12-12T05:56:06.332Z,30.43
2022-12-12T05:56:47.906Z,29.63
2022-12-12T05:57:29.458Z,29.73
2022-12-12T05:58:11.217Z,32.43
2022-12-12T05:58:52.849Z,28.13
2022-12-12T05:59:34.865Z,31.00
2022-12-12T06:00:16.549Z,31.27
2022-12-12T06:01:03.020Z,30.87
2022-12-12T06:01:45.035Z,30.97
2022-12-12T06:02:26.720Z,32.87
2022-12-12T06:03:08.462Z,32.87
2022-12-12T06:03:50.275Z,30.73
2022-12-12T06:04:31.945Z,33.30
2022-12-12T06:05:13.681Z,31.00
2022-12-12T06:05:55.384Z,31.27
2022-12-12T06:06:37.009Z,31.57
2022-12-12T06:07:18.614Z,31.47
2022-12-12T06:08:00.293Z,33.40
2022-12-12T06:08:42.011Z,33.97
2022-12-12T06:09:23.658Z,32.70
2022-12-12T06:10:05.798Z,31.47
2022-12-12T06:10:47.420Z,29.97
2022-12-12T06:11:29.040Z,30.43
2022-12-12T06:12:10.703Z,32.43
2022-12-12T06:12:52.293Z,31.90
2022-12-12T06:13:34.479Z,28.87
2022-12-12T06:14:16.523Z,29.93
2022-12-12T06:14:58.159Z,30.30
2022-12-12T06:15:40.697Z,32.53
2022-12-12T06:16:22.415Z,31.80
2022-12-12T06:17:04.160Z,30.63
2022-12-12T06:17:45.772Z,29.37
2022-12-12T06:18:27.314Z,34.77
2022-12-12T06:19:08.872Z,32.00
2022-12-12T06:19:50.457Z,32.77
2022-12-12T06:20:32.485Z,30.33
2022-12-12T06:21:14.152Z,31.83
2022-12-12T06:21:55.820Z,30.77
2022-12-12T06:22:37.455Z,30.10
2022-12-12T06:23:19.018Z,30.07
2022-12-12T06:24:00.643Z,29.97
2022-12-12T06:24:42.305Z,33.23
2022-12-12T06:25:24.542Z,31.67
2022-12-12T06:26:07.949Z,32.23
2022-12-12T06:26:49.669Z,31.57
2022-12-12T06:27:31.266Z,30.07
2022-12-12T06:28:12.835Z,32.00
2022-12-12T06:28:55.559Z,29.40
2022-12-12T06:29:37.127Z,32.80
2022-12-12T06:30:18.834Z,32.87
2022-12-12T06:31:00.661Z,33.20
2022-12-12T06:31:42.289Z,31.37
2022-12-12T06:32:23.909Z,31.80
2022-12-12T06:33:05.473Z,28.50
2022-12-12T06:33:47.061Z,29.80
2022-12-12T06:34:28.715Z,31.60
2022-12-12T06:35:11.862Z,32.70
2022-12-12T06:36:26.225Z,33.30
2022-12-12T06:37:10.658Z,31.47
2022-12-12T06:37:55.768Z,33.10
2022-12-12T06:38:38.276Z,31.67
2022-12-12T06:39:19.835Z,30.23
2022-12-12T06:40:01.543Z,32.27
2022-12-12T06:40:43.119Z,30.77
2022-12-12T06:41:26.214Z,30.00
2022-12-12T06:42:07.809Z,32.47
2022-12-12T06:42:49.756Z,32.47
2022-12-12T06:43:31.322Z,30.73
2022-12-12T06:44:13.021Z,33.17
2022-12-12T06:44:54.632Z,32.33
2022-12-12T06:45:36.217Z,32.17
2022-12-12T06:46:21.404Z,32.47
2022-12-12T06:47:03.015Z,28.50
2022-12-12T06:47:44.634Z,31.77
2022-12-12T06:48:26.457Z,30.60
2022-12-12T06:49:10.051Z,29.90
2022-12-12T06:49:51.660Z,29.53
2022-12-12T06:50:33.285Z,31.10
2022-12-12T06:51:18.086Z,28.70
2022-12-12T06:51:59.721Z,29.53
2022-12-12T06:52:41.313Z,28.10
2022-12-12T06:53:23.048Z,30.20
2022-12-12T06:54:05.242Z,28.27
2022-12-12T06:54:47.169Z,27.83
2022-12-12T06:55:28.848Z,29.03
2022-12-12T06:56:15.636Z,28.23
2022-12-12T06:56:57.197Z,29.37
2022-12-12T06:57:38.800Z,27.30
2022-12-12T06:58:20.395Z,27.47
2022-12-12T06:59:02.013Z,28.43
2022-12-12T06:59:43.679Z,28.27
2022-12-12T07:00:25.437Z,27.80
2022-12-12T07:01:08.082Z,26.73
2022-12-12T07:01:50.123Z,27.07
2022-12-12T07:02:31.831Z,29.17
2022-12-12T07:03:13.589Z,27.77
2022-12-12T07:03:55.286Z,29.13
2022-12-12T07:04:36.899Z,28.57
2022-12-12T07:05:18.518Z,27.87
2022-12-12T07:06:01.007Z,28.63
2022-12-12T07:06:42.668Z,28.93
2022-12-12T07:07:24.464Z,26.50
2022-12-12T07:08:06.095Z,29.07
2022-12-12T07:08:48.388Z,29.83
2022-12-12T07:09:30.326Z,31.37
2022-12-12T07:10:11.929Z,30.13
2022-12-12T07:10:54.649Z,29.00
2022-12-12T07:11:36.275Z,31.47
2022-12-12T07:12:17.861Z,28.63
2022-12-12T07:12:59.457Z,26.17
2022-12-12T07:13:41.131Z,27.03
2022-12-12T07:14:22.805Z,29.83
2022-12-12T07:15:04.679Z,30.20
2022-12-12T07:15:48.907Z,27.47
2022-12-12T07:16:30.554Z,27.87
2022-12-12T07:17:12.210Z,28.13
2022-12-12T07:17:53.952Z,29.20
2022-12-12T07:18:36.078Z,28.77
2022-12-12T07:19:17.710Z,27.83
2022-12-12T07:19:59.279Z,29.93
2022-12-12T07:20:41.718Z,30.47
2022-12-12T07:21:23.385Z,28.13
2022-12-12T07:22:09.789Z,30.40
2022-12-12T07:22:52.760Z,30.70
2022-12-12T07:23:34.836Z,31.17
2022-12-12T07:24:16.466Z,30.53
2022-12-12T07:24:58.113Z,28.47
2022-12-12T07:25:41.675Z,28.03
2022-12-12T07:26:24.678Z,30.63
2022-12-12T07:27:06.756Z,30.10
2022-12-12T07:27:48.397Z,29.87
2022-12-12T07:28:30.038Z,30.30
2022-12-12T07:29:11.648Z,28.57
2022-12-12T07:29:53.194Z,28.23
2022-12-12T07:30:34.945Z,29.77
2022-12-12T07:31:21.093Z,32.07
2022-12-12T07:32:02.803Z,30.33
2022-12-12T07:32:44.414Z,32.13
2022-12-12T07:33:31.894Z,30.77
2022-12-12T07:34:21.358Z,29.90
2022-12-12T07:35:03.281Z,29.93
2022-12-12T07:35:45.163Z,28.77
2022-12-12T07:36:26.829Z,28.03
2022-12-12T07:37:08.891Z,30.87
2022-12-12T07:37:50.527Z,31.57
2022-12-12T07:38:32.351Z,28.23
2022-12-12T07:39:20.116Z,28.80
2022-12-12T07:40:02.533Z,29.97
2022-12-12T07:40:44.163Z,28.90
2022-12-12T07:41:26.371Z,31.00
2022-12-12T07:42:07.967Z,28.90
2022-12-12T07:42:49.553Z,29.37
2022-12-12T07:43:32.889Z,28.00
2022-12-12T07:44:16.328Z,27.87
2022-12-12T07:44:57.891Z,28.92
2022-12-12T07:45:43.440Z,29.23
2022-12-12T07:46:26.084Z,26.33
2022-12-12T07:47:07.708Z,29.47
2022-12-12T07:47:49.295Z,29.10
2022-12-12T07:48:30.859Z,30.33
2022-12-12T07:49:12.438Z,28.20
2022-12-12T07:49:54.531Z,29.63
2022-12-12T07:50:38.386Z,31.87
2022-12-12T07:51:21.004Z,29.03
2022-12-12T07:52:02.928Z,29.27
2022-12-12T07:52:44.606Z,28.60
2022-12-12T07:53:26.518Z,29.90
2022-12-12T07:54:08.174Z,31.53
2022-12-12T07:54:49.931Z,30.20
2022-12-12T07:55:31.654Z,31.83
2022-12-12T07:56:15.481Z,32.90
2022-12-12T07:56:58.907Z,35.17
2022-12-12T07:57:41.342Z,35.00
2022-12-12T07:58:23.331Z,34.77
2022-12-12T07:59:04.974Z,33.80
2022-12-12T07:59:46.597Z,32.17
2022-12-12T08:00:28.230Z,37.60
2022-12-12T08:01:28.117Z,48.73
2022-12-12T08:02:10.395Z,53.30
2022-12-12T08:02:52.109Z,44.23
2022-12-12T08:03:33.776Z,34.57
2022-12-12T08:04:15.533Z,37.27
2022-12-12T08:04:57.193Z,39.07
2022-12-12T08:05:42.814Z,34.30
2022-12-12T08:06:25.080Z,32.47
2022-12-12T08:07:08.648Z,48.60
2022-12-12T08:07:50.526Z,40.03
2022-12-12T08:08:32.489Z,37.03
2022-12-12T08:09:14.215Z,47.93
2022-12-12T08:09:55.867Z,47.80
2022-12-12T08:10:40.565Z,45.37
2022-12-12T08:11:24.513Z,39.43
2022-12-12T08:12:06.445Z,36.60
2022-12-12T08:12:48.160Z,36.30
2022-12-12T08:13:29.727Z,40.03
2022-12-12T08:14:13.340Z,35.75
2022-12-12T08:14:55.103Z,36.53
2022-12-12T08:15:36.685Z,44.35
2022-12-12T08:16:24.843Z,41.83
2022-12-12T08:17:06.503Z,40.03
2022-12-12T08:17:48.126Z,51.43
2022-12-12T08:18:29.922Z,63.57
2022-12-12T08:19:11.558Z,66.57
2022-12-12T08:19:53.215Z,65.53
2022-12-12T08:20:34.920Z,56.33
2022-12-12T08:21:25.206Z,46.40
2022-12-12T08:22:08.467Z,38.83
2022-12-12T08:22:50.115Z,42.47
2022-12-12T08:23:31.751Z,40.75
2022-12-12T08:24:15.450Z,41.20
2022-12-12T08:24:57.682Z,46.93
2022-12-12T08:25:39.322Z,43.37
2022-12-12T08:26:20.908Z,37.22
2022-12-12T08:27:02.610Z,35.33
2022-12-12T08:27:44.260Z,34.83
2022-12-12T08:28:25.924Z,31.88
2022-12-12T08:29:08.827Z,31.70
2022-12-12T08:29:53.001Z,30.75
2022-12-12T08:30:34.646Z,32.38
2022-12-12T08:31:17.822Z,30.47
2022-12-12T08:31:59.524Z,34.05
2022-12-12T08:32:41.153Z,30.53
2022-12-12T08:33:22.821Z,28.80
2022-12-12T08:34:05.180Z,31.65
2022-12-12T08:34:47.893Z,29.88
2022-12-12T08:35:32.578Z,30.63
2022-12-12T08:36:16.580Z,27.70
2022-12-12T08:36:59.397Z,29.08
2022-12-12T08:37:41.090Z,29.37
2022-12-12T08:38:22.791Z,26.63
2022-12-12T08:39:09.602Z,25.80
2022-12-12T08:39:55.452Z,28.20
2022-12-12T08:40:37.534Z,27.15
2022-12-12T08:41:20.073Z,29.27
2022-12-12T08:42:01.902Z,26.23
2022-12-12T08:42:43.710Z,26.67
2022-12-12T08:43:25.365Z,26.48
2022-12-12T08:44:08.899Z,29.25
2022-12-12T08:44:50.591Z,29.53
2022-12-12T08:45:32.260Z,26.77
2022-12-12T08:46:18.057Z,27.20
2022-12-12T08:47:00.223Z,26.00
2022-12-12T08:47:41.931Z,27.70
2022-12-12T08:48:23.619Z,26.85
2022-12-12T08:49:05.852Z,24.23
2022-12-12T08:49:47.522Z,29.03
2022-12-12T08:50:29.133Z,28.23
2022-12-12T08:51:10.770Z,28.90
2022-12-12T08:51:52.438Z,27.50
2022-12-12T08:52:34.209Z,26.92
2022-12-12T08:53:15.798Z,26.73
2022-12-12T08:53:58.951Z,28.13
2022-12-12T08:54:40.578Z,31.60
2022-12-12T08:55:22.149Z,30.65
2022-12-12T08:56:03.911Z,28.25
2022-12-12T08:56:45.504Z,28.30
2022-12-12T08:57:27.149Z,29.60
2022-12-12T08:58:08.750Z,26.23
2022-12-12T08:58:51.009Z,30.33
2022-12-12T08:59:32.692Z,31.27
2022-12-12T09:00:14.902Z,26.08
2022-12-12T09:00:56.681Z,27.70
2022-12-12T09:01:38.451Z,29.92
2022-12-12T09:02:20.298Z,29.40
2022-12-12T09:03:02.083Z,27.88
2022-12-12T09:03:44.402Z,27.48
2022-12-12T09:04:26.030Z,26.92
2022-12-12T09:05:08.053Z,27.73
2022-12-12T09:05:49.656Z,27.58
2022-12-12T09:06:31.398Z,28.77
2022-12-12T09:07:13.496Z,27.65
2022-12-12T09:07:55.304Z,27.85
2022-12-12T09:08:38.307Z,28.60
2022-12-12T09:09:19.966Z,29.33
2022-12-12T09:10:01.875Z,26.37
2022-12-12T09:10:43.502Z,26.03
2022-12-12T09:11:25.297Z,29.90
2022-12-12T09:12:07.255Z,25.83
2022-12-12T09:12:48.919Z,26.60
2022-12-12T09:13:30.807Z,27.02
2022-12-12T09:14:12.390Z,24.85
2022-12-12T09:14:54.005Z,24.80
2022-12-12T09:15:37.313Z,27.40
2022-12-12T09:16:19.816Z,26.17
2022-12-12T09:17:01.519Z,27.10
2022-12-12T09:17:43.617Z,25.45
2022-12-12T09:18:25.630Z,25.17
2022-12-12T09:19:07.258Z,24.88
2022-12-12T09:19:49.661Z,27.52
2022-12-12T09:20:31.378Z,26.05
2022-12-12T09:21:13.035Z,25.70
2022-12-12T09:21:54.737Z,25.75
2022-12-12T09:22:36.484Z,23.52
2022-12-12T09:23:18.479Z,25.55
2022-12-12T09:24:00.217Z,24.08
2022-12-12T09:24:42.609Z,25.20
2022-12-12T09:25:24.910Z,25.00
2022-12-12T09:26:07.789Z,26.25
2022-12-12T09:26:49.416Z,27.38
2022-12-12T09:27:31.207Z,26.42
2022-12-12T09:28:14.792Z,28.15
2022-12-12T09:28:56.463Z,25.20
2022-12-12T09:29:38.117Z,25.58
2022-12-12T09:30:19.778Z,23.35
2022-12-12T09:31:05.614Z,26.42
2022-12-12T09:31:47.432Z,25.95
2022-12-12T09:32:29.174Z,26.67
2022-12-12T09:33:11.210Z,26.67
2022-12-12T09:33:53.930Z,24.77
2022-12-12T09:34:37.670Z,25.45
2022-12-12T09:35:19.561Z,26.08
2022-12-12T09:36:03.961Z,26.30
2022-12-12T09:36:45.633Z,25.95
2022-12-12T09:37:28.618Z,25.30
2022-12-12T09:38:14.277Z,25.30
2022-12-12T09:38:56.691Z,23.65
2022-12-12T09:39:38.338Z,25.08
2022-12-12T09:40:47.821Z,25.58
2022-12-12T09:41:30.658Z,25.90
2022-12-12T09:42:21.488Z,24.27
2022-12-12T09:43:04.261Z,26.73
2022-12-12T09:43:54.961Z,24.98
2022-12-12T09:44:37.871Z,26.02
2022-12-12T09:45:20.385Z,25.38
2022-12-12T09:46:04.480Z,24.67
2022-12-12T09:46:49.217Z,24.00
2022-12-12T09:47:40.669Z,27.55
2022-12-12T09:48:30.959Z,27.33
2022-12-12T09:49:21.557Z,25.73